createdAt,value
2022-09-26T00:01:10.343Z,76403.84
2022-09-26T00:03:36.868Z,76393.91
2022-09-26T00:06:08.546Z,76380.00
2022-09-26T00:08:36.805Z,76383.97
2022-09-26T00:11:05.856Z,76393.91
2022-09-26T00:13:34.983Z,76403.84
2022-09-26T00:16:01.832Z,76395.91
2022-09-26T00:18:28.460Z,76411.78
2022-09-26T00:21:05.951Z,76387.94
2022-09-26T00:23:33.301Z,76383.97
2022-09-26T00:26:00.156Z,76391.91
2022-09-26T00:28:27.390Z,76395.91
2022-09-26T00:30:54.678Z,76401.84
2022-09-26T00:33:21.267Z,76409.81
2022-09-26T00:35:52.393Z,76415.75
2022-09-26T00:38:19.486Z,76427.69
2022-09-26T00:40:47.063Z,76423.72
2022-09-26T00:43:34.003Z,76429.66
2022-09-26T00:46:30.343Z,76423.72
2022-09-26T00:49:07.858Z,76437.63
2022-09-26T00:51:37.835Z,76447.56
2022-09-26T00:54:06.491Z,76443.59
2022-09-26T00:56:36.451Z,76427.69
2022-09-26T00:59:07.646Z,76437.63
2022-09-26T01:01:34.524Z,76459.47
2022-09-26T01:04:03.926Z,76455.50
2022-09-26T01:06:31.145Z,76457.50
2022-09-26T01:09:04.813Z,76459.47
2022-09-26T01:11:31.937Z,76461.47
2022-09-26T01:13:59.024Z,76447.56
2022-09-26T01:16:25.563Z,76437.63
2022-09-26T01:18:52.098Z,76437.63
2022-09-26T01:21:59.172Z,76431.66
2022-09-26T01:24:56.739Z,76427.69
2022-09-26T01:27:50.618Z,76433.66
2022-09-26T01:30:21.662Z,76433.66
2022-09-26T01:32:57.794Z,76429.66
2022-09-26T01:35:50.072Z,76429.66
2022-09-26T01:38:33.191Z,76423.72
2022-09-26T01:41:36.939Z,76407.81
2022-09-26T01:44:16.144Z,76415.75
2022-09-26T01:46:51.037Z,76409.81
2022-09-26T01:49:46.539Z,76403.84
2022-09-26T01:52:38.673Z,76411.78
2022-09-26T01:55:16.412Z,76407.81
2022-09-26T01:57:50.201Z,76409.81
2022-09-26T02:00:18.896Z,76415.75
2022-09-26T02:02:48.224Z,76405.81
2022-09-26T02:05:33.360Z,76415.75
2022-09-26T02:08:12.672Z,76419.72
2022-09-26T02:10:52.613Z,76421.72
2022-09-26T02:13:58.036Z,76433.66
2022-09-26T02:16:38.808Z,76427.69
2022-09-26T02:19:16.632Z,76411.78
2022-09-26T02:21:43.876Z,76401.84
2022-09-26T02:24:10.486Z,76413.78
2022-09-26T02:26:37.112Z,76421.72
2022-09-26T02:29:04.543Z,76401.84
2022-09-26T02:31:36.565Z,76411.78
2022-09-26T02:34:04.607Z,76421.72
2022-09-26T02:36:33.674Z,76415.75
2022-09-26T02:39:01.477Z,76413.78
2022-09-26T02:41:41.519Z,76411.78
2022-09-26T02:44:29.060Z,76411.78
2022-09-26T02:47:38.726Z,76385.97
2022-09-26T02:50:37.516Z,76423.72
2022-09-26T02:53:21.672Z,76411.78
2022-09-26T02:56:03.715Z,76421.72
2022-09-26T02:58:49.120Z,76409.81
2022-09-26T03:01:31.478Z,76413.78
2022-09-26T03:04:36.538Z,76405.81
2022-09-26T03:07:10.363Z,76403.84
2022-09-26T03:09:37.524Z,76397.88
2022-09-26T03:12:06.605Z,76407.81
2022-09-26T03:14:35.538Z,76391.91
2022-09-26T03:17:03.433Z,76399.88
2022-09-26T03:19:39.327Z,76413.78
2022-09-26T03:22:05.824Z,76391.91
2022-09-26T03:24:35.541Z,76405.81
2022-09-26T03:27:05.102Z,76383.97
2022-09-26T03:29:34.547Z,76397.88
2022-09-26T03:32:01.454Z,76381.97
2022-09-26T03:34:28.186Z,76383.97
2022-09-26T03:36:54.663Z,76397.88
2022-09-26T03:39:23.165Z,76405.81
2022-09-26T03:41:49.749Z,76411.78
2022-09-26T03:44:16.345Z,76411.78
2022-09-26T03:46:47.158Z,76421.72
2022-09-26T03:49:13.718Z,76407.81
2022-09-26T03:51:40.308Z,76403.84
2022-09-26T03:54:06.872Z,76395.91
2022-09-26T03:56:33.324Z,76397.88
2022-09-26T03:59:00.905Z,76397.88
2022-09-26T04:01:29.836Z,76395.91
2022-09-26T04:03:56.746Z,76399.88
2022-09-26T04:06:23.543Z,76405.81
2022-09-26T04:08:52.247Z,76415.75
2022-09-26T04:11:22.011Z,76421.72
2022-09-26T04:13:52.299Z,76417.75
2022-09-26T04:16:23.862Z,76425.69
2022-09-26T04:18:56.712Z,76425.69
2022-09-26T04:21:24.757Z,76435.63
2022-09-26T04:23:53.246Z,76441.59
2022-09-26T04:26:23.679Z,76441.59
2022-09-26T04:28:52.379Z,76431.66
2022-09-26T04:31:21.469Z,76427.69
2022-09-26T04:33:48.276Z,76435.63
2022-09-26T04:36:17.376Z,76439.59
2022-09-26T04:38:43.896Z,76429.66
2022-09-26T04:41:15.845Z,76435.63
2022-09-26T04:43:42.793Z,76439.59
2022-09-26T04:46:18.571Z,76435.63
2022-09-26T04:48:48.581Z,76429.66
2022-09-26T04:51:17.007Z,76417.75
2022-09-26T04:53:43.768Z,76423.72
2022-09-26T04:56:12.874Z,76417.75
2022-09-26T04:58:41.775Z,76407.81
2022-09-26T05:01:10.899Z,76413.78
2022-09-26T05:03:37.875Z,76419.72
2022-09-26T05:06:09.078Z,76421.72
2022-09-26T05:08:46.623Z,76433.66
2022-09-26T05:11:14.984Z,76429.66
2022-09-26T05:13:41.889Z,76433.66
2022-09-26T05:16:08.988Z,76427.69
2022-09-26T05:18:37.529Z,76419.72
2022-09-26T05:21:05.994Z,76419.72
2022-09-26T05:23:51.381Z,76419.72
2022-09-26T05:26:36.546Z,76405.81
2022-09-26T05:29:08.360Z,76395.91
2022-09-26T05:31:37.613Z,76413.78
2022-09-26T05:34:12.206Z,76401.84
2022-09-26T05:36:42.725Z,76415.75
2022-09-26T05:39:29.695Z,76425.69
2022-09-26T05:41:57.261Z,76413.78
2022-09-26T05:44:23.876Z,76407.81
2022-09-26T05:46:51.956Z,76411.78
2022-09-26T05:49:18.702Z,76411.78
2022-09-26T05:51:46.617Z,76405.81
2022-09-26T05:54:13.577Z,76405.81
2022-09-26T05:56:40.268Z,76415.75
2022-09-26T05:59:07.955Z,76421.72
2022-09-26T06:01:35.062Z,76427.69
2022-09-26T06:04:05.025Z,76429.66
2022-09-26T06:06:31.496Z,76433.66
2022-09-26T06:08:58.065Z,76437.63
2022-09-26T06:11:31.267Z,76445.56
2022-09-26T06:14:00.727Z,76449.53
2022-09-26T06:16:28.590Z,76447.56
2022-09-26T06:18:55.930Z,76447.56
2022-09-26T06:21:23.120Z,76429.66
2022-09-26T06:23:49.898Z,76463.44
2022-09-26T06:26:21.201Z,76447.56
2022-09-26T06:28:50.366Z,76455.50
2022-09-26T06:31:18.972Z,76437.63
2022-09-26T06:33:53.321Z,76431.66
2022-09-26T06:36:20.235Z,76439.59
2022-09-26T06:38:46.772Z,76441.59
2022-09-26T06:41:15.051Z,76437.63
2022-09-26T06:43:41.508Z,76435.63
2022-09-26T06:46:10.814Z,76413.78
2022-09-26T06:48:37.263Z,76403.84
2022-09-26T06:51:04.016Z,76399.88
2022-09-26T06:53:31.431Z,76389.94
2022-09-26T06:56:02.040Z,76378.00
2022-09-26T06:58:28.637Z,76360.13
2022-09-26T07:00:55.921Z,76342.25
2022-09-26T07:03:25.439Z,76346.22
2022-09-26T07:05:57.520Z,76334.28
2022-09-26T07:08:43.293Z,76328.34
2022-09-26T07:11:32.595Z,76312.44
2022-09-26T07:14:01.943Z,76290.56
2022-09-26T07:16:29.201Z,76290.56
2022-09-26T07:19:05.283Z,76272.69
2022-09-26T07:21:35.315Z,76278.66
2022-09-26T07:24:02.061Z,76266.72
2022-09-26T07:26:28.485Z,76248.84
2022-09-26T07:28:55.302Z,76234.94
2022-09-26T07:31:23.660Z,76225.00
2022-09-26T07:33:50.394Z,76213.09
2022-09-26T07:36:18.555Z,76203.16
2022-09-26T07:38:48.554Z,76185.25
2022-09-26T07:41:15.374Z,76173.34
2022-09-26T07:44:30.347Z,76163.41
2022-09-26T07:46:47.120Z,76147.50
2022-09-26T07:49:32.329Z,76137.59
2022-09-26T07:52:00.682Z,76129.63
2022-09-26T07:54:27.294Z,76115.72
2022-09-26T07:56:54.468Z,76101.81
2022-09-26T07:59:22.877Z,76095.84
2022-09-26T08:01:49.648Z,76085.91
2022-09-26T08:04:16.972Z,76076.00
2022-09-26T08:06:43.746Z,76056.13
2022-09-26T08:09:10.268Z,76032.28
2022-09-26T08:11:38.460Z,76016.38
2022-09-26T08:14:04.949Z,76026.31
2022-09-26T08:16:33.366Z,76004.47
2022-09-26T08:19:01.671Z,75984.59
2022-09-26T08:21:28.263Z,75966.72
2022-09-26T08:23:55.875Z,75958.75
2022-09-26T08:26:23.996Z,75934.91
2022-09-26T08:28:50.611Z,75919.03
2022-09-26T08:31:18.004Z,75903.13
2022-09-26T08:33:44.628Z,75887.22
2022-09-26T08:36:13.320Z,75865.38
2022-09-26T08:38:40.028Z,75853.47
2022-09-26T08:41:47.411Z,75873.31
2022-09-26T08:44:53.112Z,75887.22
2022-09-26T08:47:43.010Z,75889.22
2022-09-26T08:50:32.564Z,75901.16
2022-09-26T08:53:11.682Z,75913.06
2022-09-26T08:55:44.590Z,75889.22
2022-09-26T08:58:17.094Z,75841.53
2022-09-26T09:00:44.646Z,75831.59
2022-09-26T09:03:26.027Z,75805.78
2022-09-26T09:05:59.345Z,75817.69
2022-09-26T09:08:35.173Z,75819.69
2022-09-26T09:11:14.679Z,75835.59
2022-09-26T09:14:03.027Z,75871.34
2022-09-26T09:16:58.701Z,75885.25
2022-09-26T09:19:55.760Z,75887.22
2022-09-26T09:22:57.844Z,75883.25
2022-09-26T09:25:49.054Z,75921.00
2022-09-26T09:28:34.272Z,75925.00
2022-09-26T09:31:13.640Z,75930.94
2022-09-26T09:33:50.625Z,75932.94
2022-09-26T09:36:40.546Z,75919.03
2022-09-26T09:39:09.658Z,75893.19
2022-09-26T09:41:50.636Z,75859.41
2022-09-26T09:44:25.289Z,75835.59
2022-09-26T09:46:51.853Z,75803.78
2022-09-26T09:49:23.809Z,75787.91
2022-09-26T09:52:01.248Z,75740.22
2022-09-26T09:55:03.487Z,75714.41
2022-09-26T09:57:37.079Z,75712.41
2022-09-26T10:00:20.235Z,75714.41
2022-09-26T10:03:02.275Z,75738.22
2022-09-26T10:05:44.289Z,75748.16
2022-09-26T10:08:17.773Z,75748.16
2022-09-26T10:11:09.276Z,75728.31
2022-09-26T10:13:36.970Z,75732.28
2022-09-26T10:16:08.160Z,75718.38
2022-09-26T10:19:03.916Z,75680.63
2022-09-26T10:21:42.692Z,75650.81
2022-09-26T10:24:34.399Z,75632.94
2022-09-26T10:27:19.078Z,75623.00
2022-09-26T10:29:45.589Z,75599.16
2022-09-26T10:32:12.291Z,75577.31
2022-09-26T10:34:39.998Z,75563.41
2022-09-26T10:37:30.044Z,75565.41
2022-09-26T10:40:17.369Z,75545.53
2022-09-26T10:42:47.163Z,75567.38
2022-09-26T10:45:18.050Z,75581.28
2022-09-26T10:47:46.489Z,75557.44
2022-09-26T10:50:27.861Z,75533.59
2022-09-26T10:53:03.272Z,75503.81
2022-09-26T10:55:38.375Z,75476.00
2022-09-26T10:58:13.766Z,75483.94
2022-09-26T11:00:43.957Z,75497.84
2022-09-26T11:03:16.761Z,75533.59
2022-09-26T11:05:57.437Z,75545.53
2022-09-26T11:08:38.265Z,75563.41
2022-09-26T11:11:12.619Z,75591.22
2022-09-26T11:13:48.014Z,75601.16
2022-09-26T11:16:19.267Z,75609.09
2022-09-26T11:19:11.941Z,75644.84
2022-09-26T11:21:51.491Z,75650.81
2022-09-26T11:24:31.197Z,75666.72
2022-09-26T11:27:21.356Z,75670.69
2022-09-26T11:30:09.403Z,75652.81
2022-09-26T11:32:41.180Z,75621.03
2022-09-26T11:35:17.973Z,75591.22
2022-09-26T11:38:07.308Z,75565.41
2022-09-26T11:40:33.754Z,75547.50
2022-09-26T11:43:15.241Z,75521.69
2022-09-26T11:46:04.604Z,75531.63
2022-09-26T11:48:45.560Z,75537.59
2022-09-26T11:51:33.280Z,75525.66
2022-09-26T11:54:15.005Z,75521.69
2022-09-26T11:56:53.760Z,75519.69
2022-09-26T11:59:40.825Z,75503.81
2022-09-26T12:02:32.644Z,75499.84
2022-09-26T12:05:14.143Z,75477.97
2022-09-26T12:08:19.287Z,75489.91
2022-09-26T12:11:09.872Z,75452.16
2022-09-26T12:13:54.791Z,75450.16
2022-09-26T12:16:46.570Z,75456.13
2022-09-26T12:19:32.316Z,75428.31
2022-09-26T12:22:28.612Z,75374.69
2022-09-26T12:25:20.307Z,75340.91
2022-09-26T12:28:09.877Z,75384.63
2022-09-26T12:31:09.615Z,75390.56
2022-09-26T12:34:14.931Z,75410.44
2022-09-26T12:37:06.016Z,75416.41
2022-09-26T12:39:35.373Z,75444.22
2022-09-26T12:42:28.229Z,75474.00
2022-09-26T12:45:09.837Z,75458.13
2022-09-26T12:48:07.439Z,75476.00
2022-09-26T12:50:55.411Z,75483.94
2022-09-26T12:53:48.367Z,75499.84
2022-09-26T12:56:26.749Z,75517.72
2022-09-26T12:59:23.926Z,75525.66
2022-09-26T13:02:08.158Z,75505.78
2022-09-26T13:04:52.981Z,75497.84
2022-09-26T13:07:31.545Z,75477.97
2022-09-26T13:10:13.115Z,75458.13
2022-09-26T13:13:02.610Z,75448.19
2022-09-26T13:15:40.018Z,75454.16
2022-09-26T13:18:23.002Z,75452.16
2022-09-26T13:20:58.871Z,75442.22
2022-09-26T13:23:34.935Z,75440.25
2022-09-26T13:26:08.881Z,75440.25
2022-09-26T13:29:06.515Z,75438.25
2022-09-26T13:31:41.197Z,75402.50
2022-09-26T13:34:24.985Z,75390.56
2022-09-26T13:36:52.632Z,75362.75
2022-09-26T13:39:33.172Z,75368.72
2022-09-26T13:42:08.872Z,75356.81
2022-09-26T13:45:11.813Z,75382.63
2022-09-26T13:47:49.427Z,75394.56
2022-09-26T13:50:24.999Z,75402.50
2022-09-26T13:53:20.344Z,75392.56
2022-09-26T13:56:25.671Z,75378.66
2022-09-26T13:59:11.887Z,75376.69
2022-09-26T14:01:42.206Z,75366.75
2022-09-26T14:04:19.205Z,75394.56
2022-09-26T14:07:02.855Z,75402.50
2022-09-26T14:09:52.460Z,75428.31
2022-09-26T14:12:31.266Z,75442.22
2022-09-26T14:15:20.874Z,75444.22
2022-09-26T14:17:47.434Z,75454.16
2022-09-26T14:20:27.569Z,75454.16
2022-09-26T14:22:56.943Z,75442.22
2022-09-26T14:25:45.358Z,75436.28
2022-09-26T14:28:34.678Z,75442.22
2022-09-26T14:31:26.263Z,75446.19
2022-09-26T14:34:16.710Z,75448.19
2022-09-26T14:36:45.479Z,75418.38
2022-09-26T14:39:36.713Z,75374.69
2022-09-26T14:42:17.475Z,75348.88
2022-09-26T14:44:55.536Z,75374.69
2022-09-26T14:47:22.550Z,75398.53
2022-09-26T14:50:05.450Z,75404.47
2022-09-26T14:52:34.123Z,75416.41
2022-09-26T14:55:06.107Z,75418.38
2022-09-26T14:57:35.131Z,75422.34
2022-09-26T15:00:02.669Z,75426.34
2022-09-26T15:02:41.011Z,75432.28
2022-09-26T15:05:11.344Z,75426.34
2022-09-26T15:07:50.450Z,75418.38
2022-09-26T15:10:28.119Z,75412.44
2022-09-26T15:13:36.373Z,75410.44
2022-09-26T15:16:21.027Z,75416.41
2022-09-26T15:19:05.399Z,75438.25
2022-09-26T15:21:40.607Z,75456.13
2022-09-26T15:24:26.696Z,75456.13
2022-09-26T15:26:56.125Z,75464.06
2022-09-26T15:29:23.237Z,75477.97
2022-09-26T15:31:51.266Z,75481.97
2022-09-26T15:34:21.921Z,75489.91
2022-09-26T15:36:55.151Z,75497.84
2022-09-26T15:39:30.956Z,75511.75
2022-09-26T15:42:39.100Z,75521.69
2022-09-26T15:45:27.658Z,75533.59
2022-09-26T15:47:56.654Z,75541.56
2022-09-26T15:50:37.016Z,75527.66
2022-09-26T15:53:26.867Z,75537.59
2022-09-26T15:56:01.528Z,75539.56
2022-09-26T15:58:34.346Z,75563.41
2022-09-26T16:01:01.388Z,75569.38
2022-09-26T16:03:28.134Z,75573.34
2022-09-26T16:05:57.795Z,75571.34
2022-09-26T16:08:32.389Z,75573.34
2022-09-26T16:11:03.174Z,75585.25
2022-09-26T16:13:37.427Z,75583.28
2022-09-26T16:16:13.011Z,75573.34
2022-09-26T16:18:47.478Z,75565.41
2022-09-26T16:21:28.939Z,75563.41
2022-09-26T16:23:58.307Z,75573.34
2022-09-26T16:26:33.120Z,75585.25
2022-09-26T16:29:00.842Z,75593.22
2022-09-26T16:31:31.714Z,75597.19
2022-09-26T16:33:59.078Z,75615.06
2022-09-26T16:36:35.208Z,75630.94
2022-09-26T16:39:05.444Z,75650.81
2022-09-26T16:44:34.932Z,75678.63
2022-09-26T16:47:04.723Z,75686.56
2022-09-26T16:49:48.394Z,75680.63
2022-09-26T16:52:20.694Z,75682.59
2022-09-26T16:54:48.729Z,75668.69
2022-09-26T16:57:22.433Z,75672.66
2022-09-26T16:59:49.973Z,75668.69
2022-09-26T17:02:17.101Z,75672.66
2022-09-26T17:04:44.661Z,75696.50
2022-09-26T17:07:14.371Z,75700.47
2022-09-26T17:09:42.709Z,75706.44
2022-09-26T17:12:17.665Z,75734.25
2022-09-26T17:14:47.242Z,75748.16
2022-09-26T17:17:16.540Z,75760.09
2022-09-26T17:19:45.343Z,75775.97
2022-09-26T17:22:17.060Z,75791.88
2022-09-26T17:24:44.114Z,75799.81
2022-09-26T17:27:16.465Z,75813.72
2022-09-26T17:29:48.658Z,75815.72
2022-09-26T17:32:28.249Z,75823.66
2022-09-26T17:34:59.396Z,75829.63
2022-09-26T17:37:27.841Z,75843.53
2022-09-26T17:39:55.618Z,75849.50
2022-09-26T17:42:23.977Z,75857.44
2022-09-26T17:47:35.262Z,75877.31
2022-09-26T17:50:01.977Z,75879.28
2022-09-26T17:52:31.569Z,75885.25
2022-09-26T17:55:02.260Z,75893.19
2022-09-26T17:57:34.585Z,75893.19
2022-09-26T18:00:05.980Z,75893.19
2022-09-26T18:02:57.431Z,75883.25
2022-09-26T18:05:28.482Z,75889.22
2022-09-26T18:08:01.654Z,75887.22
2022-09-26T18:10:33.137Z,75885.25
2022-09-26T18:13:02.192Z,75877.31
2022-09-26T18:15:29.738Z,75885.25
2022-09-26T18:17:56.882Z,75875.31
2022-09-26T18:20:33.095Z,75877.31
2022-09-26T18:22:59.968Z,75863.41
2022-09-26T18:25:26.612Z,75863.41
2022-09-26T18:27:55.005Z,75855.44
2022-09-26T18:30:21.940Z,75853.47
2022-09-26T18:32:53.069Z,75861.41
2022-09-26T18:35:24.692Z,75845.50
2022-09-26T18:37:52.275Z,75861.41
2022-09-26T18:40:18.783Z,75879.28
2022-09-26T18:42:45.528Z,75885.25
2022-09-26T18:45:15.161Z,75897.16
2022-09-26T18:47:45.471Z,75899.16
2022-09-26T18:50:26.027Z,75897.16
2022-09-26T18:52:52.992Z,75885.25
2022-09-26T18:55:43.983Z,75901.16
2022-09-26T18:58:25.771Z,75907.09
2022-09-26T19:01:02.129Z,75913.06
2022-09-26T19:03:37.748Z,75917.03
2022-09-26T19:06:12.930Z,75907.09
2022-09-26T19:08:42.970Z,75903.13
2022-09-26T19:11:21.451Z,75911.06
2022-09-26T19:13:53.507Z,75901.16
2022-09-26T19:16:20.992Z,75899.16
2022-09-26T19:18:47.852Z,75903.13
2022-09-26T19:21:42.019Z,75891.22
2022-09-26T19:24:20.169Z,75893.19
2022-09-26T19:26:51.615Z,75903.13
2022-09-26T19:29:38.423Z,75899.16
2022-09-26T19:32:06.372Z,75901.16
2022-09-26T19:34:33.257Z,75899.16
2022-09-26T19:37:01.473Z,75907.09
2022-09-26T19:39:28.212Z,75899.16
2022-09-26T19:41:54.773Z,75909.09
2022-09-26T19:44:21.395Z,75911.06
2022-09-26T19:46:47.951Z,75919.03
2022-09-26T19:49:17.992Z,75921.00
2022-09-26T19:51:44.942Z,75930.94
2022-09-26T19:54:17.974Z,75923.00
2022-09-26T19:56:45.782Z,75923.00
2022-09-26T19:59:14.419Z,75926.97
2022-09-26T20:01:43.044Z,75926.97
2022-09-26T20:04:15.286Z,75915.06
2022-09-26T20:06:41.956Z,75917.03
2022-09-26T20:09:15.207Z,75915.06
2022-09-26T20:11:41.756Z,75907.09
2022-09-26T20:14:23.352Z,75907.09
2022-09-26T20:17:23.140Z,75893.19
2022-09-26T20:19:50.233Z,75893.19
2022-09-26T20:22:20.839Z,75881.28
2022-09-26T20:24:51.490Z,75889.22
2022-09-26T20:27:24.304Z,75883.25
2022-09-26T20:30:09.963Z,75887.22
2022-09-26T20:32:37.310Z,75875.31
2022-09-26T20:35:08.981Z,75877.31
2022-09-26T20:37:39.888Z,75883.25
2022-09-26T20:40:18.245Z,75899.16
2022-09-26T20:42:50.749Z,75879.28
2022-09-26T20:45:26.393Z,75877.31
2022-09-26T20:47:52.959Z,75875.31
2022-09-26T20:50:20.593Z,75879.28
2022-09-26T20:52:47.111Z,75875.31
2022-09-26T20:55:18.310Z,75875.31
2022-09-26T20:57:45.557Z,75865.38
2022-09-26T21:00:16.923Z,75851.47
2022-09-26T21:02:44.547Z,75849.50
2022-09-26T21:05:17.123Z,75855.44
2022-09-26T21:07:43.918Z,75851.47
2022-09-26T21:10:31.408Z,75835.59
2022-09-26T21:12:59.382Z,75843.53
2022-09-26T21:15:29.499Z,75829.63
2022-09-26T21:17:56.290Z,75827.63
2022-09-26T21:20:33.979Z,75819.69
2022-09-26T21:23:01.900Z,75821.69
2022-09-26T21:25:31.365Z,75815.72
2022-09-26T21:28:11.285Z,75811.75
2022-09-26T21:30:37.955Z,75783.94
2022-09-26T21:33:04.544Z,75801.81
2022-09-26T21:35:32.115Z,75789.88
2022-09-26T21:38:00.994Z,75789.88
2022-09-26T21:40:32.595Z,75795.84
2022-09-26T21:43:05.597Z,75777.97
2022-09-26T21:45:32.097Z,75787.91
2022-09-26T21:47:58.619Z,75777.97
2022-09-26T21:50:29.145Z,75772.00
2022-09-26T21:53:05.725Z,75768.03
2022-09-26T21:55:37.264Z,75770.03
2022-09-26T21:58:13.031Z,75764.06
2022-09-26T22:00:40.034Z,75768.03
2022-09-26T22:03:07.048Z,75772.00
2022-09-26T22:05:37.599Z,75758.09
2022-09-26T22:08:04.280Z,75770.03
2022-09-26T22:10:31.292Z,75756.13
2022-09-26T22:12:58.220Z,75766.03
2022-09-26T22:15:25.763Z,75748.16
2022-09-26T22:17:53.327Z,75744.19
2022-09-26T22:20:19.861Z,75744.19
2022-09-26T22:22:46.469Z,75740.22
2022-09-26T22:25:12.931Z,75748.16
2022-09-26T22:27:39.961Z,75748.16
2022-09-26T22:30:07.819Z,75750.16
2022-09-26T22:32:34.273Z,75742.19
2022-09-26T22:35:00.757Z,75750.16
2022-09-26T22:37:27.608Z,75750.16
2022-09-26T22:39:54.624Z,75752.13
2022-09-26T22:42:21.182Z,75748.16
2022-09-26T22:44:48.358Z,75734.25
2022-09-26T22:47:14.926Z,75732.28
2022-09-26T22:49:41.457Z,75744.19
2022-09-26T22:52:08.037Z,75726.31
2022-09-26T22:54:34.572Z,75734.25
2022-09-26T22:57:01.072Z,75728.31
2022-09-26T22:59:27.593Z,75728.31
2022-09-26T23:01:56.538Z,75728.31
2022-09-26T23:04:23.072Z,75732.28
2022-09-26T23:06:49.560Z,75734.25
2022-09-26T23:09:16.169Z,75726.31
2022-09-26T23:11:43.203Z,75726.31
2022-09-26T23:14:09.712Z,75708.44
2022-09-26T23:16:36.356Z,75718.38
2022-09-26T23:19:03.117Z,75710.41
2022-09-26T23:21:29.580Z,75704.47
2022-09-26T23:23:58.258Z,75680.63
2022-09-26T23:26:30.226Z,75674.66
2022-09-26T23:28:58.338Z,75686.56
2022-09-26T23:31:26.802Z,75682.59
2022-09-26T23:33:54.250Z,75694.53
2022-09-26T23:36:21.051Z,75702.47
2022-09-26T23:38:47.932Z,75692.53
2022-09-26T23:41:14.564Z,75678.63
2022-09-26T23:43:41.839Z,75702.47
2022-09-26T23:46:09.010Z,75692.53
2022-09-26T23:48:35.935Z,75670.69
2022-09-26T23:51:02.991Z,75686.56
2022-09-26T23:53:29.841Z,75700.47
2022-09-26T23:56:08.958Z,75686.56
2022-09-26T23:58:37.168Z,75668.69
